CYSB

Sudbury Airport

Sudbury, , Canada
METAR CYSB 210400Z 18003KT 15SM OVC250 19/16 A3002 RMK CI8 SLP166 DENSITY ALT 1800FT
Observed Flight Rules
Aug-21 @ 04:00 UTC (11 minutes ago) Visual Flight Rules
Wind Visibility Clouds
180° at 3 knots 15 miles
  • Overcast at 25,000' AGL
Temperatures Readings
Current 19°C / 66°F
Dewpoint 16°C / 61°F
Humidity 83%
Altimeter 30.02" Hg
Pressure 1016.6 hPa
Elevation 348
METAR CYSB 210400Z 18003KT 15SM OVC250 19/16 A3002 RMK CI8 SLP166 DENSITY ALT 1800FT
Observed Flight Rules
Aug-21 @ 04:00 UTC
(11 minutes ago)
VFR
Wind Visibility
180° at 3 knots 15 miles
Clouds
  • Overcast at 25,000' AGL
Temperature Dewpoint
19°C / 66°F 16°C / 61°F
Humidity Altimeter Pressure
83% 30.02" Hg 1016.6 hPa